sensor_id;sensor_type;location;lat;lon;timestamp;temperature;humidity
62339;DHT22;48368;53.406;6.214;2024-02-26T00:02:18;5.10;99.90
62339;DHT22;48368;53.406;6.214;2024-02-26T00:04:44;5.00;99.90
62339;DHT22;48368;53.406;6.214;2024-02-26T00:07:10;5.00;99.90
62339;DHT22;48368;53.406;6.214;2024-02-26T00:09:35;5.00;99.90
62339;DHT22;48368;53.406;6.214;2024-02-26T00:12:05;5.00;99.90
62339;DHT22;48368;53.406;6.214;2024-02-26T00:14:31;5.00;99.90
62339;DHT22;48368;53.406;6.214;2024-02-26T00:16:57;5.00;99.90
62339;DHT22;48368;53.406;6.214;2024-02-26T00:19:23;5.00;99.90
62339;DHT22;48368;53.406;6.214;2024-02-26T00:21:48;5.00;99.90
62339;DHT22;48368;53.406;6.214;2024-02-26T00:24:14;5.00;99.90
62339;DHT22;48368;53.406;6.214;2024-02-26T00:26:40;5.00;99.90
62339;DHT22;48368;53.406;6.214;2024-02-26T00:29:06;5.00;99.90
62339;DHT22;48368;53.406;6.214;2024-02-26T00:31:33;5.00;99.90
62339;DHT22;48368;53.406;6.214;2024-02-26T00:34:01;5.00;99.90
62339;DHT22;48368;53.406;6.214;2024-02-26T00:36:27;5.00;99.90
62339;DHT22;48368;53.406;6.214;2024-02-26T00:38:52;5.00;99.90
62339;DHT22;48368;53.406;6.214;2024-02-26T00:41:18;5.10;99.90
62339;DHT22;48368;53.406;6.214;2024-02-26T00:43:44;5.10;99.90
62339;DHT22;48368;53.406;6.214;2024-02-26T00:46:10;5.10;99.90
62339;DHT22;48368;53.406;6.214;2024-02-26T00:48:37;5.10;99.90
62339;DHT22;48368;53.406;6.214;2024-02-26T00:51:04;5.00;99.90
62339;DHT22;48368;53.406;6.214;2024-02-26T00:53:34;5.10;99.90
62339;DHT22;48368;53.406;6.214;2024-02-26T00:56:00;5.10;99.90
62339;DHT22;48368;53.406;6.214;2024-02-26T00:58:26;5.10;99.90
62339;DHT22;48368;53.406;6.214;2024-02-26T01:00:52;5.00;99.90
62339;DHT22;48368;53.406;6.214;2024-02-26T01:03:18;5.00;99.90
62339;DHT22;48368;53.406;6.214;2024-02-26T01:05:44;5.00;99.90
62339;DHT22;48368;53.406;6.214;2024-02-26T01:08:10;5.00;99.90
62339;DHT22;48368;53.406;6.214;2024-02-26T01:10:36;5.00;99.90
62339;DHT22;48368;53.406;6.214;2024-02-26T01:13:02;5.00;99.90
62339;DHT22;48368;53.406;6.214;2024-02-26T01:15:28;5.00;99.90
62339;DHT22;48368;53.406;6.214;2024-02-26T01:17:54;5.00;99.90
62339;DHT22;48368;53.406;6.214;2024-02-26T01:20:20;5.00;99.90
62339;DHT22;48368;53.406;6.214;2024-02-26T01:22:46;5.00;99.90
62339;DHT22;48368;53.406;6.214;2024-02-26T01:25:12;5.00;99.90
62339;DHT22;48368;53.406;6.214;2024-02-26T01:27:38;5.00;99.90
62339;DHT22;48368;53.406;6.214;2024-02-26T01:30:05;5.00;99.90
62339;DHT22;48368;53.406;6.214;2024-02-26T01:32:33;5.00;99.90
62339;DHT22;48368;53.406;6.214;2024-02-26T01:34:59;5.00;99.90
62339;DHT22;48368;53.406;6.214;2024-02-26T01:37:25;5.00;99.90
62339;DHT22;48368;53.406;6.214;2024-02-26T01:39:51;5.00;99.90
62339;DHT22;48368;53.406;6.214;2024-02-26T01:42:17;5.00;99.90
62339;DHT22;48368;53.406;6.214;2024-02-26T01:44:43;5.00;99.90
62339;DHT22;48368;53.406;6.214;2024-02-26T01:47:11;5.10;99.90
62339;DHT22;48368;53.406;6.214;2024-02-26T01:49:38;5.00;99.90
62339;DHT22;48368;53.406;6.214;2024-02-26T01:52:06;5.00;99.90
62339;DHT22;48368;53.406;6.214;2024-02-26T01:54:34;5.10;99.90
62339;DHT22;48368;53.406;6.214;2024-02-26T01:57:00;5.00;99.90
62339;DHT22;48368;53.406;6.214;2024-02-26T01:59:26;5.00;99.90
62339;DHT22;48368;53.406;6.214;2024-02-26T02:01:56;5.00;99.90
62339;DHT22;48368;53.406;6.214;2024-02-26T02:04:23;5.00;99.90
62339;DHT22;48368;53.406;6.214;2024-02-26T02:06:50;5.00;99.90
62339;DHT22;48368;53.406;6.214;2024-02-26T02:09:18;5.00;99.90
62339;DHT22;48368;53.406;6.214;2024-02-26T02:11:44;5.00;99.90
62339;DHT22;48368;53.406;6.214;2024-02-26T02:14:10;5.00;99.90
62339;DHT22;48368;53.406;6.214;2024-02-26T02:16:36;5.00;99.90
62339;DHT22;48368;53.406;6.214;2024-02-26T02:19:02;5.00;99.90
62339;DHT22;48368;53.406;6.214;2024-02-26T02:21:28;4.90;99.90
62339;DHT22;48368;53.406;6.214;2024-02-26T02:23:53;5.00;99.90
62339;DHT22;48368;53.406;6.214;2024-02-26T02:26:20;4.90;99.90
62339;DHT22;48368;53.406;6.214;2024-02-26T02:28:46;4.90;99.90
62339;DHT22;48368;53.406;6.214;2024-02-26T02:31:13;4.90;99.90
62339;DHT22;48368;53.406;6.214;2024-02-26T02:33:39;4.90;99.90
62339;DHT22;48368;53.406;6.214;2024-02-26T02:36:08;4.90;99.90
62339;DHT22;48368;53.406;6.214;2024-02-26T02:38:37;4.90;99.90
62339;DHT22;48368;53.406;6.214;2024-02-26T02:41:03;4.90;99.90
62339;DHT22;48368;53.406;6.214;2024-02-26T02:43:29;4.90;99.90
62339;DHT22;48368;53.406;6.214;2024-02-26T02:45:55;4.80;99.90
62339;DHT22;48368;53.406;6.214;2024-02-26T02:48:23;4.80;99.90
62339;DHT22;48368;53.406;6.214;2024-02-26T02:50:49;4.80;99.90
62339;DHT22;48368;53.406;6.214;2024-02-26T02:53:15;4.80;99.90
62339;DHT22;48368;53.406;6.214;2024-02-26T02:55:43;4.80;99.90
62339;DHT22;48368;53.406;6.214;2024-02-26T02:58:09;4.80;99.90
62339;DHT22;48368;53.406;6.214;2024-02-26T03:00:34;4.80;99.90
62339;DHT22;48368;53.406;6.214;2024-02-26T03:03:00;4.90;99.90
62339;DHT22;48368;53.406;6.214;2024-02-26T03:05:26;4.90;99.90
62339;DHT22;48368;53.406;6.214;2024-02-26T03:07:52;4.90;99.90
62339;DHT22;48368;53.406;6.214;2024-02-26T03:10:18;4.90;99.90
62339;DHT22;48368;53.406;6.214;2024-02-26T03:12:45;4.90;99.90
62339;DHT22;48368;53.406;6.214;2024-02-26T03:15:11;4.90;99.90
62339;DHT22;48368;53.406;6.214;2024-02-26T03:17:37;4.90;99.90
62339;DHT22;48368;53.406;6.214;2024-02-26T03:20:03;4.90;99.90
62339;DHT22;48368;53.406;6.214;2024-02-26T03:22:31;4.90;99.90
62339;DHT22;48368;53.406;6.214;2024-02-26T03:24:57;4.90;99.90
62339;DHT22;48368;53.406;6.214;2024-02-26T03:27:23;5.00;99.90
62339;DHT22;48368;53.406;6.214;2024-02-26T03:29:48;4.90;99.90
62339;DHT22;48368;53.406;6.214;2024-02-26T03:32:14;5.00;99.90
62339;DHT22;48368;53.406;6.214;2024-02-26T03:34:40;5.00;99.90
62339;DHT22;48368;53.406;6.214;2024-02-26T03:37:15;5.00;99.90
62339;DHT22;48368;53.406;6.214;2024-02-26T03:39:40;5.00;99.90
62339;DHT22;48368;53.406;6.214;2024-02-26T03:42:06;5.00;99.90
62339;DHT22;48368;53.406;6.214;2024-02-26T03:44:32;5.00;99.90
62339;DHT22;48368;53.406;6.214;2024-02-26T03:46:59;5.00;99.90
62339;DHT22;48368;53.406;6.214;2024-02-26T03:49:25;5.00;99.90
62339;DHT22;48368;53.406;6.214;2024-02-26T03:51:50;5.00;99.90
62339;DHT22;48368;53.406;6.214;2024-02-26T03:54:16;5.10;99.90
62339;DHT22;48368;53.406;6.214;2024-02-26T03:56:42;5.00;99.90
62339;DHT22;48368;53.406;6.214;2024-02-26T03:59:08;5.00;99.90
62339;DHT22;48368;53.406;6.214;2024-02-26T04:01:33;5.10;99.90
62339;DHT22;48368;53.406;6.214;2024-02-26T04:03:59;5.10;99.90
62339;DHT22;48368;53.406;6.214;2024-02-26T04:06:28;5.00;99.90
62339;DHT22;48368;53.406;6.214;2024-02-26T04:08:54;5.10;99.90
62339;DHT22;48368;53.406;6.214;2024-02-26T04:11:19;5.10;99.90
62339;DHT22;48368;53.406;6.214;2024-02-26T04:13:46;5.10;99.90
62339;DHT22;48368;53.406;6.214;2024-02-26T04:16:15;5.10;99.90
62339;DHT22;48368;53.406;6.214;2024-02-26T04:18:42;5.10;99.90
62339;DHT22;48368;53.406;6.214;2024-02-26T04:21:07;5.10;99.90
62339;DHT22;48368;53.406;6.214;2024-02-26T04:23:33;5.10;99.90
62339;DHT22;48368;53.406;6.214;2024-02-26T04:25:59;5.10;99.90
62339;DHT22;48368;53.406;6.214;2024-02-26T04:28:25;5.10;99.90
62339;DHT22;48368;53.406;6.214;2024-02-26T04:30:52;5.20;99.90
62339;DHT22;48368;53.406;6.214;2024-02-26T04:33:18;5.20;99.90
62339;DHT22;48368;53.406;6.214;2024-02-26T04:35:43;5.10;99.90
62339;DHT22;48368;53.406;6.214;2024-02-26T04:38:15;5.10;99.90
62339;DHT22;48368;53.406;6.214;2024-02-26T04:40:41;5.20;99.90
62339;DHT22;48368;53.406;6.214;2024-02-26T04:43:07;5.10;99.90
62339;DHT22;48368;53.406;6.214;2024-02-26T04:45:33;5.10;99.90
62339;DHT22;48368;53.406;6.214;2024-02-26T04:48:00;5.10;99.90
62339;DHT22;48368;53.406;6.214;2024-02-26T04:50:26;5.10;99.90
62339;DHT22;48368;53.406;6.214;2024-02-26T04:52:51;5.10;99.90
62339;DHT22;48368;53.406;6.214;2024-02-26T04:55:17;5.10;99.90
62339;DHT22;48368;53.406;6.214;2024-02-26T04:57:43;5.10;99.90
62339;DHT22;48368;53.406;6.214;2024-02-26T05:00:09;5.10;99.90
62339;DHT22;48368;53.406;6.214;2024-02-26T05:02:35;5.10;99.90
62339;DHT22;48368;53.406;6.214;2024-02-26T05:05:07;5.10;99.90
62339;DHT22;48368;53.406;6.214;2024-02-26T05:07:39;5.10;99.90
62339;DHT22;48368;53.406;6.214;2024-02-26T05:10:11;5.00;99.90
62339;DHT22;48368;53.406;6.214;2024-02-26T05:12:36;5.00;99.90
62339;DHT22;48368;53.406;6.214;2024-02-26T05:15:08;5.00;99.90
62339;DHT22;48368;53.406;6.214;2024-02-26T05:17:34;5.00;99.90
62339;DHT22;48368;53.406;6.214;2024-02-26T05:20:00;5.00;99.90
62339;DHT22;48368;53.406;6.214;2024-02-26T05:22:26;5.00;99.90
62339;DHT22;48368;53.406;6.214;2024-02-26T05:24:52;5.00;99.90
62339;DHT22;48368;53.406;6.214;2024-02-26T05:27:17;5.00;99.90
62339;DHT22;48368;53.406;6.214;2024-02-26T05:29:43;5.00;99.90
62339;DHT22;48368;53.406;6.214;2024-02-26T05:32:09;4.90;99.90
62339;DHT22;48368;53.406;6.214;2024-02-26T05:34:37;4.90;99.90
62339;DHT22;48368;53.406;6.214;2024-02-26T05:37:03;5.00;99.90
62339;DHT22;48368;53.406;6.214;2024-02-26T05:39:33;5.00;99.90
62339;DHT22;48368;53.406;6.214;2024-02-26T05:41:58;5.00;99.90
62339;DHT22;48368;53.406;6.214;2024-02-26T05:44:26;5.00;99.90
62339;DHT22;48368;53.406;6.214;2024-02-26T05:46:52;5.00;99.90
62339;DHT22;48368;53.406;6.214;2024-02-26T05:49:25;5.00;99.90
62339;DHT22;48368;53.406;6.214;2024-02-26T05:51:51;5.00;99.90
62339;DHT22;48368;53.406;6.214;2024-02-26T05:54:17;4.90;99.90
62339;DHT22;48368;53.406;6.214;2024-02-26T05:56:43;5.00;99.90
62339;DHT22;48368;53.406;6.214;2024-02-26T05:59:08;5.00;99.90
62339;DHT22;48368;53.406;6.214;2024-02-26T06:01:34;5.00;99.90
62339;DHT22;48368;53.406;6.214;2024-02-26T06:04:00;5.00;99.90
62339;DHT22;48368;53.406;6.214;2024-02-26T06:06:26;5.10;99.90
62339;DHT22;48368;53.406;6.214;2024-02-26T06:08:51;5.00;99.90
62339;DHT22;48368;53.406;6.214;2024-02-26T06:11:27;5.00;99.90
62339;DHT22;48368;53.406;6.214;2024-02-26T06:13:52;4.90;99.90
62339;DHT22;48368;53.406;6.214;2024-02-26T06:16:18;5.00;99.90
62339;DHT22;48368;53.406;6.214;2024-02-26T06:18:44;4.90;99.90
62339;DHT22;48368;53.406;6.214;2024-02-26T06:21:10;4.90;99.90
62339;DHT22;48368;53.406;6.214;2024-02-26T06:23:37;4.90;99.90
62339;DHT22;48368;53.406;6.214;2024-02-26T06:26:03;4.90;99.90
62339;DHT22;48368;53.406;6.214;2024-02-26T06:28:29;4.90;99.90
62339;DHT22;48368;53.406;6.214;2024-02-26T06:30:57;4.90;99.90
62339;DHT22;48368;53.406;6.214;2024-02-26T06:33:23;4.90;99.90
62339;DHT22;48368;53.406;6.214;2024-02-26T06:35:49;4.90;99.90
62339;DHT22;48368;53.406;6.214;2024-02-26T06:38:15;4.90;99.90
62339;DHT22;48368;53.406;6.214;2024-02-26T06:40:41;4.90;99.90
62339;DHT22;48368;53.406;6.214;2024-02-26T06:43:06;4.90;99.90
62339;DHT22;48368;53.406;6.214;2024-02-26T06:45:32;4.90;99.90
62339;DHT22;48368;53.406;6.214;2024-02-26T06:48:01;5.00;99.90
62339;DHT22;48368;53.406;6.214;2024-02-26T06:50:26;5.00;99.90
62339;DHT22;48368;53.406;6.214;2024-02-26T06:52:52;4.90;99.90
62339;DHT22;48368;53.406;6.214;2024-02-26T06:55:18;4.90;99.90
62339;DHT22;48368;53.406;6.214;2024-02-26T06:57:49;4.90;99.90
62339;DHT22;48368;53.406;6.214;2024-02-26T07:00:15;4.90;99.90
62339;DHT22;48368;53.406;6.214;2024-02-26T07:02:43;4.90;99.90
62339;DHT22;48368;53.406;6.214;2024-02-26T07:05:09;4.90;99.90
62339;DHT22;48368;53.406;6.214;2024-02-26T07:07:35;4.90;99.90
62339;DHT22;48368;53.406;6.214;2024-02-26T07:10:01;4.90;99.90
62339;DHT22;48368;53.406;6.214;2024-02-26T07:12:30;4.90;99.90
62339;DHT22;48368;53.406;6.214;2024-02-26T07:14:56;4.90;99.90
62339;DHT22;48368;53.406;6.214;2024-02-26T07:17:22;4.80;99.90
62339;DHT22;48368;53.406;6.214;2024-02-26T07:19:47;4.90;99.90
62339;DHT22;48368;53.406;6.214;2024-02-26T07:22:13;4.90;99.90
62339;DHT22;48368;53.406;6.214;2024-02-26T07:24:39;4.90;99.90
62339;DHT22;48368;53.406;6.214;2024-02-26T07:27:05;4.90;99.90
62339;DHT22;48368;53.406;6.214;2024-02-26T07:29:31;4.90;99.90
62339;DHT22;48368;53.406;6.214;2024-02-26T07:31:57;5.00;99.90
62339;DHT22;48368;53.406;6.214;2024-02-26T07:34:23;5.00;99.90
62339;DHT22;48368;53.406;6.214;2024-02-26T07:36:53;5.00;99.90
62339;DHT22;48368;53.406;6.214;2024-02-26T07:39:19;5.00;99.90
62339;DHT22;48368;53.406;6.214;2024-02-26T07:41:47;5.10;99.90
62339;DHT22;48368;53.406;6.214;2024-02-26T07:44:18;5.10;99.90
62339;DHT22;48368;53.406;6.214;2024-02-26T07:46:44;5.10;99.90
62339;DHT22;48368;53.406;6.214;2024-02-26T07:49:10;5.10;99.90
62339;DHT22;48368;53.406;6.214;2024-02-26T07:51:35;5.10;99.90
62339;DHT22;48368;53.406;6.214;2024-02-26T07:54:02;5.20;99.90
62339;DHT22;48368;53.406;6.214;2024-02-26T07:56:27;5.20;99.90
62339;DHT22;48368;53.406;6.214;2024-02-26T07:58:53;5.20;99.90
62339;DHT22;48368;53.406;6.214;2024-02-26T08:01:19;5.20;99.90
62339;DHT22;48368;53.406;6.214;2024-02-26T08:03:47;5.20;99.90
62339;DHT22;48368;53.406;6.214;2024-02-26T08:06:16;5.20;99.90
62339;DHT22;48368;53.406;6.214;2024-02-26T08:08:42;5.20;99.90
62339;DHT22;48368;53.406;6.214;2024-02-26T08:11:09;5.30;99.90
62339;DHT22;48368;53.406;6.214;2024-02-26T08:13:35;5.30;99.90
62339;DHT22;48368;53.406;6.214;2024-02-26T08:16:01;5.30;99.90
62339;DHT22;48368;53.406;6.214;2024-02-26T08:18:27;5.30;99.90
62339;DHT22;48368;53.406;6.214;2024-02-26T08:20:53;5.30;99.90
62339;DHT22;48368;53.406;6.214;2024-02-26T08:23:19;5.30;99.90
62339;DHT22;48368;53.406;6.214;2024-02-26T08:25:44;5.30;99.90
62339;DHT22;48368;53.406;6.214;2024-02-26T08:28:10;5.40;99.90
62339;DHT22;48368;53.406;6.214;2024-02-26T08:30:39;5.40;99.90
62339;DHT22;48368;53.406;6.214;2024-02-26T08:33:05;5.40;99.90
62339;DHT22;48368;53.406;6.214;2024-02-26T08:35:31;5.40;99.90
62339;DHT22;48368;53.406;6.214;2024-02-26T08:37:57;5.50;99.90
62339;DHT22;48368;53.406;6.214;2024-02-26T08:40:22;5.50;99.90
62339;DHT22;48368;53.406;6.214;2024-02-26T08:42:48;5.50;99.90
62339;DHT22;48368;53.406;6.214;2024-02-26T08:45:16;5.50;99.90
62339;DHT22;48368;53.406;6.214;2024-02-26T08:47:45;5.60;99.90
62339;DHT22;48368;53.406;6.214;2024-02-26T08:50:11;5.60;99.90
62339;DHT22;48368;53.406;6.214;2024-02-26T08:52:38;5.60;99.90
62339;DHT22;48368;53.406;6.214;2024-02-26T08:55:04;5.70;99.90
62339;DHT22;48368;53.406;6.214;2024-02-26T08:57:31;5.70;99.90
62339;DHT22;48368;53.406;6.214;2024-02-26T09:00:00;5.80;99.90
62339;DHT22;48368;53.406;6.214;2024-02-26T09:02:26;5.80;99.90
62339;DHT22;48368;53.406;6.214;2024-02-26T09:04:52;5.80;99.90
62339;DHT22;48368;53.406;6.214;2024-02-26T09:07:21;5.80;99.90
62339;DHT22;48368;53.406;6.214;2024-02-26T09:09:47;5.90;99.90
62339;DHT22;48368;53.406;6.214;2024-02-26T09:12:13;5.90;99.90
62339;DHT22;48368;53.406;6.214;2024-02-26T09:14:38;5.90;99.90
62339;DHT22;48368;53.406;6.214;2024-02-26T09:17:04;5.90;99.90
62339;DHT22;48368;53.406;6.214;2024-02-26T09:19:33;6.00;99.90
62339;DHT22;48368;53.406;6.214;2024-02-26T09:21:59;6.00;99.90
62339;DHT22;48368;53.406;6.214;2024-02-26T09:24:26;6.00;99.90
62339;DHT22;48368;53.406;6.214;2024-02-26T09:26:52;6.00;99.90
62339;DHT22;48368;53.406;6.214;2024-02-26T09:29:18;6.10;99.90
62339;DHT22;48368;53.406;6.214;2024-02-26T09:31:44;6.10;99.90
62339;DHT22;48368;53.406;6.214;2024-02-26T09:34:13;6.10;99.90
62339;DHT22;48368;53.406;6.214;2024-02-26T09:36:39;6.10;99.90
62339;DHT22;48368;53.406;6.214;2024-02-26T09:39:05;6.10;99.90
62339;DHT22;48368;53.406;6.214;2024-02-26T09:41:32;6.10;99.90
62339;DHT22;48368;53.406;6.214;2024-02-26T09:43:58;6.00;99.90
62339;DHT22;48368;53.406;6.214;2024-02-26T09:46:27;6.00;99.90
62339;DHT22;48368;53.406;6.214;2024-02-26T09:48:54;5.90;99.90
62339;DHT22;48368;53.406;6.214;2024-02-26T09:51:23;5.90;99.90
62339;DHT22;48368;53.406;6.214;2024-02-26T09:53:53;6.00;99.90
62339;DHT22;48368;53.406;6.214;2024-02-26T09:56:21;6.00;99.90
62339;DHT22;48368;53.406;6.214;2024-02-26T09:58:47;6.10;99.90
62339;DHT22;48368;53.406;6.214;2024-02-26T10:01:19;6.10;99.90
62339;DHT22;48368;53.406;6.214;2024-02-26T10:03:50;6.10;99.90
62339;DHT22;48368;53.406;6.214;2024-02-26T10:06:17;6.00;99.90
62339;DHT22;48368;53.406;6.214;2024-02-26T10:08:43;6.00;99.90
62339;DHT22;48368;53.406;6.214;2024-02-26T10:11:10;6.00;99.90
62339;DHT22;48368;53.406;6.214;2024-02-26T10:13:38;6.00;99.90
62339;DHT22;48368;53.406;6.214;2024-02-26T10:16:04;6.00;99.90
62339;DHT22;48368;53.406;6.214;2024-02-26T10:18:51;6.00;99.90
62339;DHT22;48368;53.406;6.214;2024-02-26T10:21:19;6.00;99.90
62339;DHT22;48368;53.406;6.214;2024-02-26T10:23:45;6.10;99.90
62339;DHT22;48368;53.406;6.214;2024-02-26T10:26:13;6.10;99.90
62339;DHT22;48368;53.406;6.214;2024-02-26T10:28:41;6.00;99.90
62339;DHT22;48368;53.406;6.214;2024-02-26T10:31:07;6.10;99.90
62339;DHT22;48368;53.406;6.214;2024-02-26T10:33:34;6.10;99.90
62339;DHT22;48368;53.406;6.214;2024-02-26T10:36:04;6.10;99.90
62339;DHT22;48368;53.406;6.214;2024-02-26T10:38:31;6.10;99.90
62339;DHT22;48368;53.406;6.214;2024-02-26T10:40:58;6.10;99.90
62339;DHT22;48368;53.406;6.214;2024-02-26T10:43:25;6.10;99.90
62339;DHT22;48368;53.406;6.214;2024-02-26T10:45:51;6.10;99.90
62339;DHT22;48368;53.406;6.214;2024-02-26T10:48:17;6.20;99.90
62339;DHT22;48368;53.406;6.214;2024-02-26T10:50:43;6.20;99.90
62339;DHT22;48368;53.406;6.214;2024-02-26T10:53:16;6.20;99.90
62339;DHT22;48368;53.406;6.214;2024-02-26T10:55:46;6.20;99.90
62339;DHT22;48368;53.406;6.214;2024-02-26T10:58:13;6.20;99.90
62339;DHT22;48368;53.406;6.214;2024-02-26T11:00:40;6.20;99.90
62339;DHT22;48368;53.406;6.214;2024-02-26T11:03:06;6.20;99.90
62339;DHT22;48368;53.406;6.214;2024-02-26T11:05:35;6.20;99.90
62339;DHT22;48368;53.406;6.214;2024-02-26T11:08:02;6.20;99.90
62339;DHT22;48368;53.406;6.214;2024-02-26T11:10:29;6.20;99.90
62339;DHT22;48368;53.406;6.214;2024-02-26T11:12:57;6.20;99.90
62339;DHT22;48368;53.406;6.214;2024-02-26T11:15:25;6.20;99.90
62339;DHT22;48368;53.406;6.214;2024-02-26T11:17:52;6.20;99.90
62339;DHT22;48368;53.406;6.214;2024-02-26T11:20:20;6.20;99.90
62339;DHT22;48368;53.406;6.214;2024-02-26T11:22:46;6.30;99.90
62339;DHT22;48368;53.406;6.214;2024-02-26T11:25:12;6.20;99.90
62339;DHT22;48368;53.406;6.214;2024-02-26T11:27:47;6.30;99.90
62339;DHT22;48368;53.406;6.214;2024-02-26T11:30:18;6.30;99.90
62339;DHT22;48368;53.406;6.214;2024-02-26T11:32:45;6.30;99.90
62339;DHT22;48368;53.406;6.214;2024-02-26T11:35:12;6.20;99.90
62339;DHT22;48368;53.406;6.214;2024-02-26T11:37:41;6.30;99.90
62339;DHT22;48368;53.406;6.214;2024-02-26T11:40:11;6.30;99.90
62339;DHT22;48368;53.406;6.214;2024-02-26T11:42:44;6.20;99.90
62339;DHT22;48368;53.406;6.214;2024-02-26T11:48:16;6.30;99.90
62339;DHT22;48368;53.406;6.214;2024-02-26T11:50:46;6.20;99.90
62339;DHT22;48368;53.406;6.214;2024-02-26T11:53:30;6.10;99.90
62339;DHT22;48368;53.406;6.214;2024-02-26T11:58:59;6.20;99.90
62339;DHT22;48368;53.406;6.214;2024-02-26T12:01:45;6.20;99.90
62339;DHT22;48368;53.406;6.214;2024-02-26T12:04:22;6.20;99.90
62339;DHT22;48368;53.406;6.214;2024-02-26T12:06:55;6.10;99.90
62339;DHT22;48368;53.406;6.214;2024-02-26T12:09:38;6.10;99.90
62339;DHT22;48368;53.406;6.214;2024-02-26T12:12:09;6.10;99.90
62339;DHT22;48368;53.406;6.214;2024-02-26T12:15:00;6.10;99.90
62339;DHT22;48368;53.406;6.214;2024-02-26T12:17:25;6.10;99.90
62339;DHT22;48368;53.406;6.214;2024-02-26T12:19:51;6.10;99.90
62339;DHT22;48368;53.406;6.214;2024-02-26T12:22:19;6.10;99.90
62339;DHT22;48368;53.406;6.214;2024-02-26T12:24:45;6.00;99.90
62339;DHT22;48368;53.406;6.214;2024-02-26T12:27:12;6.00;99.90
62339;DHT22;48368;53.406;6.214;2024-02-26T12:29:38;6.00;99.90
62339;DHT22;48368;53.406;6.214;2024-02-26T12:32:04;5.90;99.90
62339;DHT22;48368;53.406;6.214;2024-02-26T12:34:31;6.00;99.90
62339;DHT22;48368;53.406;6.214;2024-02-26T12:36:57;5.90;99.90
62339;DHT22;48368;53.406;6.214;2024-02-26T12:39:23;5.90;99.90
62339;DHT22;48368;53.406;6.214;2024-02-26T12:41:50;5.80;99.90
62339;DHT22;48368;53.406;6.214;2024-02-26T12:44:18;5.80;99.90
62339;DHT22;48368;53.406;6.214;2024-02-26T12:46:49;5.80;99.90
62339;DHT22;48368;53.406;6.214;2024-02-26T12:49:19;5.80;99.90
62339;DHT22;48368;53.406;6.214;2024-02-26T12:51:45;5.80;99.90
62339;DHT22;48368;53.406;6.214;2024-02-26T12:54:11;5.90;99.90
62339;DHT22;48368;53.406;6.214;2024-02-26T12:56:40;5.90;99.90
62339;DHT22;48368;53.406;6.214;2024-02-26T12:59:07;5.90;99.90
62339;DHT22;48368;53.406;6.214;2024-02-26T13:01:33;5.90;99.90
62339;DHT22;48368;53.406;6.214;2024-02-26T13:03:59;5.80;99.90
62339;DHT22;48368;53.406;6.214;2024-02-26T13:06:26;5.80;99.90
62339;DHT22;48368;53.406;6.214;2024-02-26T13:08:57;5.80;99.90
62339;DHT22;48368;53.406;6.214;2024-02-26T13:11:28;5.80;99.90
62339;DHT22;48368;53.406;6.214;2024-02-26T13:13:55;5.80;99.90
62339;DHT22;48368;53.406;6.214;2024-02-26T13:16:24;5.80;99.90
62339;DHT22;48368;53.406;6.214;2024-02-26T13:18:53;5.90;99.90
62339;DHT22;48368;53.406;6.214;2024-02-26T13:21:19;5.90;99.90
62339;DHT22;48368;53.406;6.214;2024-02-26T13:23:48;5.80;99.90
62339;DHT22;48368;53.406;6.214;2024-02-26T13:26:16;5.80;99.90
62339;DHT22;48368;53.406;6.214;2024-02-26T13:28:42;5.90;99.90
62339;DHT22;48368;53.406;6.214;2024-02-26T13:31:08;5.80;99.90
62339;DHT22;48368;53.406;6.214;2024-02-26T13:33:34;5.90;99.90
62339;DHT22;48368;53.406;6.214;2024-02-26T13:36:00;5.90;99.90
62339;DHT22;48368;53.406;6.214;2024-02-26T13:38:27;5.90;99.90
62339;DHT22;48368;53.406;6.214;2024-02-26T13:40:54;5.90;99.90
62339;DHT22;48368;53.406;6.214;2024-02-26T13:43:20;5.80;99.90
62339;DHT22;48368;53.406;6.214;2024-02-26T13:45:46;5.80;99.90
62339;DHT22;48368;53.406;6.214;2024-02-26T13:48:14;5.90;99.90
62339;DHT22;48368;53.406;6.214;2024-02-26T13:50:40;5.90;99.90
62339;DHT22;48368;53.406;6.214;2024-02-26T13:53:06;5.90;99.90
62339;DHT22;48368;53.406;6.214;2024-02-26T13:55:32;5.90;99.90
62339;DHT22;48368;53.406;6.214;2024-02-26T13:57:59;5.80;99.90
62339;DHT22;48368;53.406;6.214;2024-02-26T14:00:27;5.80;99.90
62339;DHT22;48368;53.406;6.214;2024-02-26T14:02:54;5.90;99.90
62339;DHT22;48368;53.406;6.214;2024-02-26T14:05:20;5.90;99.90
62339;DHT22;48368;53.406;6.214;2024-02-26T14:07:46;5.80;99.90
62339;DHT22;48368;53.406;6.214;2024-02-26T14:10:12;5.80;99.90
62339;DHT22;48368;53.406;6.214;2024-02-26T14:12:39;5.80;99.90
62339;DHT22;48368;53.406;6.214;2024-02-26T14:15:08;5.90;99.90
62339;DHT22;48368;53.406;6.214;2024-02-26T14:17:33;5.90;99.90
62339;DHT22;48368;53.406;6.214;2024-02-26T14:19:59;5.90;99.90
62339;DHT22;48368;53.406;6.214;2024-02-26T14:22:25;5.90;99.90
62339;DHT22;48368;53.406;6.214;2024-02-26T14:24:52;6.00;99.90
62339;DHT22;48368;53.406;6.214;2024-02-26T14:27:18;6.00;99.90
62339;DHT22;48368;53.406;6.214;2024-02-26T14:29:46;6.10;99.90
62339;DHT22;48368;53.406;6.214;2024-02-26T14:32:12;6.00;99.90
62339;DHT22;48368;53.406;6.214;2024-02-26T14:34:38;5.90;99.90
62339;DHT22;48368;53.406;6.214;2024-02-26T14:37:04;5.90;99.90
62339;DHT22;48368;53.406;6.214;2024-02-26T14:39:31;5.90;99.90
62339;DHT22;48368;53.406;6.214;2024-02-26T14:41:58;5.90;99.90
62339;DHT22;48368;53.406;6.214;2024-02-26T14:44:27;5.90;99.90
62339;DHT22;48368;53.406;6.214;2024-02-26T14:46:59;5.90;99.90
62339;DHT22;48368;53.406;6.214;2024-02-26T14:49:27;5.90;99.90
62339;DHT22;48368;53.406;6.214;2024-02-26T14:51:55;6.00;99.90
62339;DHT22;48368;53.406;6.214;2024-02-26T14:54:21;6.00;99.90
62339;DHT22;48368;53.406;6.214;2024-02-26T14:56:46;5.90;99.90
62339;DHT22;48368;53.406;6.214;2024-02-26T14:59:13;6.00;99.90
62339;DHT22;48368;53.406;6.214;2024-02-26T15:01:39;5.90;99.90
62339;DHT22;48368;53.406;6.214;2024-02-26T15:04:06;6.00;99.90
62339;DHT22;48368;53.406;6.214;2024-02-26T15:06:37;5.90;99.90
62339;DHT22;48368;53.406;6.214;2024-02-26T15:09:04;5.80;99.90
62339;DHT22;48368;53.406;6.214;2024-02-26T15:11:37;5.90;99.90
62339;DHT22;48368;53.406;6.214;2024-02-26T15:14:03;5.80;99.90
62339;DHT22;48368;53.406;6.214;2024-02-26T15:16:29;5.90;99.90
62339;DHT22;48368;53.406;6.214;2024-02-26T15:18:55;5.80;99.90
62339;DHT22;48368;53.406;6.214;2024-02-26T15:21:20;5.90;99.90
62339;DHT22;48368;53.406;6.214;2024-02-26T15:23:46;5.80;99.90
62339;DHT22;48368;53.406;6.214;2024-02-26T15:26:12;5.90;99.90
62339;DHT22;48368;53.406;6.214;2024-02-26T15:28:39;5.90;99.90
62339;DHT22;48368;53.406;6.214;2024-02-26T15:31:05;5.80;99.90
62339;DHT22;48368;53.406;6.214;2024-02-26T15:33:31;5.90;99.90
62339;DHT22;48368;53.406;6.214;2024-02-26T15:36:00;5.90;99.90
62339;DHT22;48368;53.406;6.214;2024-02-26T15:38:25;5.90;99.90
62339;DHT22;48368;53.406;6.214;2024-02-26T15:40:53;5.90;99.90
62339;DHT22;48368;53.406;6.214;2024-02-26T15:43:18;5.80;99.90
62339;DHT22;48368;53.406;6.214;2024-02-26T15:45:47;5.90;99.90
62339;DHT22;48368;53.406;6.214;2024-02-26T15:48:13;5.90;99.90
62339;DHT22;48368;53.406;6.214;2024-02-26T15:50:39;6.00;99.90